Addy, WA (99101)

7:20 PM PST on December 17, 2014 (GMT -0800)
Deer Park | Change Station
CLOSE
Current Station
Airport
Location: Deer Park,
Elevation: 2205 ft
Nearby Weather Stations
Active Advisory: Air Stagnation Advisory

Elev 2205 ft 47.97 °N, 117.42 °W | Updated 5 minutes ago

Snow
Snow
35 °F
Feels Like 30 °F
N
6
Wind Variable Wind from North

Today
High -- | Low -- °F
--% Chance of Precip.
Yesterday
High -- | Low -- °F
Precip. -- in
7:37 AM 3:58 PM
Waning Crescent, 18% visible
Pressure 29.95 in
Visibility 10.0 miles
Clouds Scattered Clouds 2800 ft
Overcast 4100 ft
Windchill 30 °F
Dew Point 33 °F
Humidity 92%
Rainfall 0.01 in
Snow Depth Not available.
UV 0 out of 12
Pollen .10 out of 12
Air Quality Not available.
Flu Activity Not available.
SPECI KDEW 180315Z AUTO 35005KT 10SM SCT028 OVC041 02/01 A2995 RMK AO2 T00170006

More Conditions Fewer Conditions

Pressure 29.95 in
Visibility 10.0 miles
Clouds Scattered Clouds 2800 ft
Overcast 4100 ft
Windchill 30 °F
Dew Point 33 °F
Humidity 92%
Rainfall 0.01 in
Snow Depth Not available.
UV 0 out of 12
Pollen .10 out of 12
Air Quality Not available.
Flu Activity Not available.
SPECI KDEW 180315Z AUTO 35005KT 10SM SCT028 OVC041 02/01 A2995 RMK AO2 T00170006

More Conditions Fewer Conditions

10-Day Weather Forecast

Almanac

Astronomy

Dec. 17, 2014 Rise Set
Actual Time
Civil Twilight
Nautical Twilight
Astronomical Twilight
Moon
Length of Visible Light
Length of Day
Tomorrow will be .
, % of the Moon is Illuminated

Today's Extremes

State Highs State Lows

Community

WunderPhotos

Upload Photos

1,778,878 photos uploaded!

WunderBlogs® & News

Nearby

Air Quality

  Air Quality AQ Index Pollutant
Not available.

Snow Depth

Station Depth Elevation

Earthquake Activity

City Distance Mag. Time & Date
Minimum magnitude displayed is 2.5.

Coastal Water Temperatures

Place Temperature

Nearby Weather Stations